Time;durP1;ratioP1;P1;durP2;ratioP2;P2;SDS_P1;SDS_P2;PMS_P1;PMS_P2;Temp;Humidity;BMP_temperature;BMP_pressure;BME280_temperature;BME280_humidity;BME280_pressure;Samples;Min_cycle;Max_cycle;Signal;HPM_P1;HPM_P2
2022/04/01 00:01:40;;;;;;;4.05;1.13;;;;;;;;;;5015161;28;20800;-82
2022/04/01 00:04:08;;;;;;;3.97;1.10;;;;;;;;;;5003856;28;20819;-82
2022/04/01 00:06:35;;;;;;;8.73;1.33;;;;;;;;;;4996063;28;20046;-83
2022/04/01 00:09:02;;;;;;;6.90;1.25;;;;;;;;;;5011957;28;20165;-84
2022/04/01 00:11:29;;;;;;;9.73;1.23;;;;;;;;;;5015035;28;20065;-83
2022/04/01 00:13:57;;;;;;;7.00;1.17;;;;;;;;;;5014822;28;20140;-84
2022/04/01 00:16:24;;;;;;;7.15;1.42;;;;;;;;;;5009378;28;20069;-84
2022/04/01 00:18:52;;;;;;;4.53;1.27;;;;;;;;;;5012321;28;20494;-84
2022/04/01 00:21:19;;;;;;;8.15;1.65;;;;;;;;;;5001586;28;20042;-83
2022/04/01 00:23:46;;;;;;;3.75;1.30;;;;;;;;;;5011088;28;20078;-83
2022/04/01 00:26:13;;;;;;;6.22;1.38;;;;;;;;;;5012552;28;20058;-83
2022/04/01 00:28:41;;;;;;;4.82;1.48;;;;;;;;;;5002341;28;20050;-83
2022/04/01 00:31:09;;;;;;;5.80;1.83;;;;;;;;;;5017405;28;20068;-83
2022/04/01 00:33:37;;;;;;;10.90;1.77;;;;;;;;;;5015554;28;20061;-83
2022/04/01 00:36:05;;;;;;;3.15;1.60;;;;;;;;;;5001319;28;20133;-83
2022/04/01 00:38:32;;;;;;;3.53;1.67;;;;;;;;;;5009148;28;20076;-83
2022/04/01 00:40:59;;;;;;;2.53;1.13;;;;;;;;;;5005439;28;20066;-83
2022/04/01 00:43:32;;;;;;;3.67;1.45;;;;;;;;;;5017892;28;20800;-83
2022/04/01 00:45:59;;;;;;;5.10;2.30;;;;;;;;;;5014357;28;20065;-83
2022/04/01 00:48:27;;;;;;;5.55;1.80;;;;;;;;;;5009406;28;20497;-84
2022/04/01 00:50:55;;;;;;;4.13;1.90;;;;;;;;;;5002631;28;20415;-83
2022/04/01 00:53:22;;;;;;;6.68;2.08;;;;;;;;;;5017726;28;20556;-83
2022/04/01 00:55:50;;;;;;;5.15;1.92;;;;;;;;;;5021306;28;20077;-83
2022/04/01 00:58:18;;;;;;;3.92;1.95;;;;;;;;;;5012900;28;20050;-82
2022/04/01 01:00:46;;;;;;;16.52;2.28;;;;;;;;;;5019472;28;20490;-82
2022/04/01 01:03:13;;;;;;;6.60;2.40;;;;;;;;;;5011679;28;20089;-83
2022/04/01 01:05:40;;;;;;;8.73;2.00;;;;;;;;;;4993871;28;20077;-82
2022/04/01 01:08:08;;;;;;;8.07;2.35;;;;;;;;;;5011136;28;20047;-83
2022/04/01 01:10:36;;;;;;;3.65;2.08;;;;;;;;;;4997081;28;20046;-82
2022/04/01 01:13:04;;;;;;;4.38;2.38;;;;;;;;;;5018388;28;20073;-82
2022/04/01 01:15:31;;;;;;;4.40;1.83;;;;;;;;;;5009127;28;20085;-83
2022/04/01 01:17:59;;;;;;;9.82;2.10;;;;;;;;;;5011345;28;20096;-83
2022/04/01 01:20:26;;;;;;;9.90;2.28;;;;;;;;;;5011425;28;20058;-81
2022/04/01 01:22:57;;;;;;;10.70;2.17;;;;;;;;;;4997915;28;20450;-82
2022/04/01 01:25:25;;;;;;;5.57;2.17;;;;;;;;;;5030463;28;20046;-82
2022/04/01 01:27:52;;;;;;;4.07;2.13;;;;;;;;;;5001990;28;20069;-82
2022/04/01 01:30:19;;;;;;;6.68;2.28;;;;;;;;;;5011254;28;20446;-83
2022/04/01 01:32:46;;;;;;;10.75;2.42;;;;;;;;;;4996844;28;20096;-82
2022/04/01 01:35:14;;;;;;;4.18;2.03;;;;;;;;;;5012210;28;20074;-82
2022/04/01 01:37:41;;;;;;;5.75;2.05;;;;;;;;;;5012494;28;20065;-82
2022/04/01 01:40:09;;;;;;;13.82;2.35;;;;;;;;;;5005656;28;20116;-83
2022/04/01 01:42:36;;;;;;;5.28;1.90;;;;;;;;;;4985365;28;20054;-83
2022/04/01 01:45:05;;;;;;;5.63;2.15;;;;;;;;;;5014282;28;20042;-83
2022/04/01 01:47:32;;;;;;;5.20;2.45;;;;;;;;;;5015261;28;20125;-83
2022/04/01 01:55:31;;;;;;;11.85;2.53;;;;;;;;;;5002128;28;20089;-83
2022/04/01 01:58:00;;;;;;;3.97;2.05;;;;;;;;;;5018085;28;20062;-91
2022/04/01 02:00:27;;;;;;;6.97;2.13;;;;;;;;;;5016280;28;20058;-92
2022/04/01 02:02:56;;;;;;;6.30;2.28;;;;;;;;;;5014870;28;20051;-92
2022/04/01 02:05:23;;;;;;;6.50;2.22;;;;;;;;;;5016893;28;20050;-91
2022/04/01 02:07:53;;;;;;;10.75;2.30;;;;;;;;;;5000826;28;20096;-91
2022/04/01 02:10:20;;;;;;;12.13;2.80;;;;;;;;;;5016909;28;20112;-91
2022/04/01 02:12:48;;;;;;;8.13;2.42;;;;;;;;;;5025386;28;20082;-91
2022/04/01 02:15:15;;;;;;;8.40;2.30;;;;;;;;;;5014411;28;20109;-91
2022/04/01 02:17:43;;;;;;;7.30;2.22;;;;;;;;;;5007710;28;20054;-90
2022/04/01 02:20:10;;;;;;;6.45;2.45;;;;;;;;;;5020207;28;20069;-93
2022/04/01 02:22:38;;;;;;;11.15;2.33;;;;;;;;;;5021287;28;20060;-91
2022/04/01 02:25:07;;;;;;;8.18;2.60;;;;;;;;;;5020800;28;20097;-90
2022/04/01 02:27:35;;;;;;;5.32;2.15;;;;;;;;;;5007122;28;20046;-91
2022/04/01 02:30:10;;;;;;;8.52;2.67;;;;;;;;;;4999993;28;20059;-92
2022/04/01 02:32:39;;;;;;;16.13;3.17;;;;;;;;;;5011670;28;20085;-91
2022/04/01 02:35:07;;;;;;;17.42;3.75;;;;;;;;;;5001652;28;20073;-92
2022/04/01 02:37:35;;;;;;;8.05;2.90;;;;;;;;;;5019341;28;20054;-92
2022/04/01 02:40:03;;;;;;;6.93;2.50;;;;;;;;;;5003604;28;20058;-91
2022/04/01 02:42:30;;;;;;;7.40;3.22;;;;;;;;;;5025775;28;20502;-90
2022/04/01 02:44:58;;;;;;;6.88;2.80;;;;;;;;;;5015244;28;20077;-84
2022/04/01 02:47:25;;;;;;;14.23;2.90;;;;;;;;;;5010603;28;20101;-84
2022/04/01 02:49:54;;;;;;;11.18;2.78;;;;;;;;;;5014104;28;20046;-83
2022/04/01 02:52:21;;;;;;;10.70;3.03;;;;;;;;;;5000299;28;20103;-83
2022/04/01 02:54:49;;;;;;;6.90;2.90;;;;;;;;;;5019474;28;20056;-84
2022/04/01 02:57:16;;;;;;;9.25;3.05;;;;;;;;;;4992697;28;20117;-83
2022/04/01 02:59:43;;;;;;;7.72;3.00;;;;;;;;;;4994684;28;20093;-82
2022/04/01 03:02:11;;;;;;;7.95;3.08;;;;;;;;;;5009390;28;20126;-83
2022/04/01 03:04:38;;;;;;;15.98;3.53;;;;;;;;;;5013638;28;20112;-92
2022/04/01 03:07:06;;;;;;;8.93;3.05;;;;;;;;;;5001298;28;20120;-91
2022/04/01 03:09:34;;;;;;;14.60;2.58;;;;;;;;;;5022944;28;20439;-91
2022/04/01 03:12:01;;;;;;;11.02;3.92;;;;;;;;;;5013247;28;20054;-91
2022/04/01 03:14:28;;;;;;;8.15;3.22;;;;;;;;;;4999906;28;20046;-91
2022/04/01 03:16:56;;;;;;;10.00;2.70;;;;;;;;;;5013537;28;20055;-92
2022/04/01 03:19:23;;;;;;;11.35;2.88;;;;;;;;;;5014660;28;20058;-91
2022/04/01 03:21:50;;;;;;;10.15;3.05;;;;;;;;;;5014177;28;20046;-92
2022/04/01 03:24:17;;;;;;;5.78;2.58;;;;;;;;;;5014650;28;20057;-92
2022/04/01 03:26:45;;;;;;;7.88;2.85;;;;;;;;;;5016350;28;20112;-92
2022/04/01 03:29:12;;;;;;;10.98;3.00;;;;;;;;;;5018533;28;20054;-93
2022/04/01 03:31:40;;;;;;;13.10;3.30;;;;;;;;;;5021368;28;20082;-92
2022/04/01 03:34:07;;;;;;;10.75;3.58;;;;;;;;;;5013736;28;20050;-92
2022/04/01 03:36:35;;;;;;;8.70;2.90;;;;;;;;;;5014154;28;20062;-92
2022/04/01 03:39:03;;;;;;;6.47;2.95;;;;;;;;;;4999417;28;20046;-91
2022/04/01 03:41:31;;;;;;;6.60;2.85;;;;;;;;;;5012869;28;20081;-91
2022/04/01 03:44:00;;;;;;;9.70;2.67;;;;;;;;;;4998931;28;20042;-91
2022/04/01 03:46:34;;;;;;;5.57;2.47;;;;;;;;;;5014538;28;20046;-90
2022/04/01 03:49:09;;;;;;;8.10;3.13;;;;;;;;;;5014505;28;20073;-91
2022/04/01 03:51:38;;;;;;;6.53;2.53;;;;;;;;;;5018984;28;20054;-90
2022/04/01 03:54:06;;;;;;;5.18;3.10;;;;;;;;;;5017511;28;20509;-91
2022/04/01 03:56:34;;;;;;;11.27;2.58;;;;;;;;;;5024438;28;20058;-91
2022/04/01 03:59:05;;;;;;;7.90;2.83;;;;;;;;;;5014283;28;20419;-91
2022/04/01 04:01:32;;;;;;;9.07;2.72;;;;;;;;;;5029816;28;20681;-91
2022/04/01 04:04:00;;;;;;;7.88;2.63;;;;;;;;;;5019540;28;20074;-90
2022/04/01 04:06:27;;;;;;;8.48;3.00;;;;;;;;;;5012284;28;20086;-90
2022/04/01 04:09:00;;;;;;;5.75;2.55;;;;;;;;;;5032725;28;20089;-90
2022/04/01 04:11:31;;;;;;;11.43;2.90;;;;;;;;;;5008456;28;20050;-91
2022/04/01 04:13:59;;;;;;;5.55;2.28;;;;;;;;;;5015305;28;20050;-91
2022/04/01 04:16:34;;;;;;;7.85;2.53;;;;;;;;;;5014045;28;20054;-92
2022/04/01 04:19:03;;;;;;;7.78;2.97;;;;;;;;;;5014955;28;20137;-90
2022/04/01 04:21:38;;;;;;;9.27;2.75;;;;;;;;;;5013813;28;20062;-91
2022/04/01 04:24:06;;;;;;;9.68;2.83;;;;;;;;;;5023929;28;20093;-91
2022/04/01 04:26:37;;;;;;;7.10;2.67;;;;;;;;;;5032312;28;20050;-91
2022/04/01 04:29:09;;;;;;;8.70;2.92;;;;;;;;;;5026405;28;20104;-90
2022/04/01 04:31:37;;;;;;;10.85;3.70;;;;;;;;;;5006464;28;20056;-90
2022/04/01 04:34:06;;;;;;;6.22;2.78;;;;;;;;;;5012798;28;20073;-91
2022/04/01 04:36:36;;;;;;;10.98;3.15;;;;;;;;;;5004147;28;20077;-87
2022/04/01 04:39:05;;;;;;;10.25;2.70;;;;;;;;;;5010668;28;20485;-87
2022/04/01 04:41:33;;;;;;;8.55;3.05;;;;;;;;;;5015581;28;20073;-87
2022/04/01 04:44:01;;;;;;;8.20;2.80;;;;;;;;;;5003045;28;20046;-88
2022/04/01 04:46:30;;;;;;;4.57;2.72;;;;;;;;;;5015643;28;20714;-87
2022/04/01 04:48:58;;;;;;;9.25;2.33;;;;;;;;;;5012123;28;20395;-87
2022/04/01 04:51:27;;;;;;;8.70;2.40;;;;;;;;;;5018580;28;20076;-87
2022/04/01 04:53:57;;;;;;;8.95;2.55;;;;;;;;;;5015390;28;20089;-87
2022/04/01 04:56:25;;;;;;;8.15;2.38;;;;;;;;;;5002035;28;20057;-87
2022/04/01 04:58:54;;;;;;;7.05;2.28;;;;;;;;;;5016417;28;20120;-86
2022/04/01 05:01:21;;;;;;;8.80;2.63;;;;;;;;;;5015760;28;20289;-87
2022/04/01 05:03:48;;;;;;;5.30;2.13;;;;;;;;;;5019787;28;20045;-87
2022/04/01 05:06:17;;;;;;;6.20;2.25;;;;;;;;;;5012584;28;20055;-88
2022/04/01 05:08:46;;;;;;;7.72;2.38;;;;;;;;;;5009847;28;20046;-88
2022/04/01 05:11:24;;;;;;;10.48;2.33;;;;;;;;;;4998787;28;20732;-86
2022/04/01 05:13:59;;;;;;;12.45;2.33;;;;;;;;;;5008781;28;20058;-85
2022/04/01 05:16:32;;;;;;;8.65;2.40;;;;;;;;;;4995485;28;20055;-87
2022/04/01 05:19:12;;;;;;;8.20;2.28;;;;;;;;;;5011343;28;20074;-86
2022/04/01 05:21:57;;;;;;;10.07;2.28;;;;;;;;;;4995067;28;20114;-85
2022/04/01 05:24:27;;;;;;;7.88;2.65;;;;;;;;;;4994602;28;20069;-86
2022/04/01 05:26:55;;;;;;;8.82;2.55;;;;;;;;;;5010255;28;20042;-88
2022/04/01 05:29:27;;;;;;;10.23;2.45;;;;;;;;;;5013920;28;20049;-86
2022/04/01 05:32:05;;;;;;;5.78;2.67;;;;;;;;;;5016501;28;20061;-89
2022/04/01 05:34:43;;;;;;;6.60;2.20;;;;;;;;;;4984840;28;20985;-87
2022/04/01 05:37:10;;;;;;;10.57;2.45;;;;;;;;;;5020780;28;20054;-87
2022/04/01 05:39:39;;;;;;;5.32;2.25;;;;;;;;;;5010016;28;20046;-87
2022/04/01 05:42:07;;;;;;;7.20;2.15;;;;;;;;;;4995572;28;20054;-87
2022/04/01 05:44:35;;;;;;;7.95;2.03;;;;;;;;;;5010306;28;20078;-87
2022/04/01 05:47:03;;;;;;;7.80;2.35;;;;;;;;;;5000638;28;20039;-87
2022/04/01 05:49:31;;;;;;;9.73;2.38;;;;;;;;;;5015973;28;20096;-88
2022/04/01 05:51:58;;;;;;;13.75;2.45;;;;;;;;;;5003605;28;20050;-89
2022/04/01 05:54:27;;;;;;;9.00;2.10;;;;;;;;;;5023149;28;20495;-88
2022/04/01 05:56:55;;;;;;;5.75;2.35;;;;;;;;;;5012853;28;20061;-89
2022/04/01 05:59:23;;;;;;;9.65;2.47;;;;;;;;;;4994981;28;20117;-89
2022/04/01 06:02:09;;;;;;;4.93;2.10;;;;;;;;;;5001395;28;20081;-87
2022/04/01 06:04:39;;;;;;;8.80;2.63;;;;;;;;;;5008576;28;20796;-89
2022/04/01 06:07:24;;;;;;;9.63;2.47;;;;;;;;;;5009621;28;20043;-89
2022/04/01 06:10:05;;;;;;;9.68;3.00;;;;;;;;;;5009888;28;20121;-88
2022/04/01 06:12:46;;;;;;;13.70;2.33;;;;;;;;;;5007685;28;20054;-89
2022/04/01 06:15:19;;;;;;;14.27;2.75;;;;;;;;;;5004209;28;20082;-89
2022/04/01 06:17:53;;;;;;;13.55;3.72;;;;;;;;;;4993688;28;20073;-89
2022/04/01 06:20:21;;;;;;;6.53;2.30;;;;;;;;;;4993376;28;20128;-89
2022/04/01 06:22:50;;;;;;;7.20;2.08;;;;;;;;;;5006826;28;20077;-89
2022/04/01 06:25:20;;;;;;;5.43;2.40;;;;;;;;;;5006477;28;20283;-89
2022/04/01 06:27:49;;;;;;;6.18;2.25;;;;;;;;;;5015009;28;20053;-89
2022/04/01 06:30:21;;;;;;;5.63;2.03;;;;;;;;;;4990882;28;20046;-87
2022/04/01 06:33:07;;;;;;;8.40;2.38;;;;;;;;;;5007006;28;20132;-89
2022/04/01 06:35:39;;;;;;;7.45;2.20;;;;;;;;;;5003605;28;20081;-88
2022/04/01 06:38:08;;;;;;;9.98;2.15;;;;;;;;;;4992391;28;20526;-89
2022/04/01 06:40:47;;;;;;;7.93;2.05;;;;;;;;;;5006329;28;20042;-90
2022/04/01 06:43:15;;;;;;;10.88;2.47;;;;;;;;;;5006589;28;20085;-89
2022/04/01 06:45:43;;;;;;;8.13;2.40;;;;;;;;;;4997295;28;20531;-90
2022/04/01 06:48:10;;;;;;;6.80;2.17;;;;;;;;;;5015640;28;20042;-89
2022/04/01 06:50:38;;;;;;;12.05;2.50;;;;;;;;;;4992759;28;20082;-86
2022/04/01 06:53:05;;;;;;;6.88;2.47;;;;;;;;;;4995530;28;20070;-89
2022/04/01 06:55:32;;;;;;;6.88;2.58;;;;;;;;;;5003030;28;20073;-89
2022/04/01 06:58:00;;;;;;;4.45;2.17;;;;;;;;;;4998919;28;20046;-89
2022/04/01 07:00:27;;;;;;;8.60;2.50;;;;;;;;;;4992791;28;20085;-89
2022/04/01 07:02:54;;;;;;;9.13;3.28;;;;;;;;;;5007986;28;20119;-89
2022/04/01 07:05:22;;;;;;;7.95;2.60;;;;;;;;;;5014099;28;20092;-89
2022/04/01 07:07:49;;;;;;;13.27;2.88;;;;;;;;;;5009464;28;20082;-89
2022/04/01 07:10:16;;;;;;;17.20;2.80;;;;;;;;;;5023408;28;20430;-89
2022/04/01 07:12:43;;;;;;;8.70;2.75;;;;;;;;;;5012530;28;20085;-90
2022/04/01 07:15:11;;;;;;;5.85;2.63;;;;;;;;;;5020174;28;20461;-89
2022/04/01 07:17:39;;;;;;;10.07;2.60;;;;;;;;;;5009808;28;20065;-87
2022/04/01 07:20:10;;;;;;;6.32;2.53;;;;;;;;;;4996895;28;20450;-88
2022/04/01 07:22:48;;;;;;;14.57;2.13;;;;;;;;;;5011367;28;20058;-89
2022/04/01 07:25:16;;;;;;;10.65;2.85;;;;;;;;;;5008289;28;20046;-89
2022/04/01 07:27:43;;;;;;;13.55;2.58;;;;;;;;;;5007985;28;20062;-88
2022/04/01 07:30:11;;;;;;;4.47;2.25;;;;;;;;;;5007697;28;20442;-89
2022/04/01 07:32:40;;;;;;;10.63;2.53;;;;;;;;;;4992325;28;20084;-89
2022/04/01 07:35:15;;;;;;;6.88;2.30;;;;;;;;;;5019231;28;20057;-90
2022/04/01 07:37:42;;;;;;;29.17;3.42;;;;;;;;;;5024074;28;20138;-89
2022/04/01 07:40:25;;;;;;;9.95;2.55;;;;;;;;;;5013118;28;20061;-87
2022/04/01 07:42:53;;;;;;;8.30;2.42;;;;;;;;;;5007735;28;20042;-87
2022/04/01 07:45:21;;;;;;;8.80;2.33;;;;;;;;;;5007773;28;20046;-88
2022/04/01 07:47:49;;;;;;;24.95;3.25;;;;;;;;;;4996779;28;20097;-87
2022/04/01 07:50:17;;;;;;;83.13;5.30;;;;;;;;;;4996408;28;20053;-87
2022/04/01 07:52:44;;;;;;;10.35;2.33;;;;;;;;;;5002202;28;20046;-87
2022/04/01 07:55:13;;;;;;;7.70;2.47;;;;;;;;;;5015320;28;20053;-88
2022/04/01 07:57:41;;;;;;;12.68;2.88;;;;;;;;;;5010833;28;20495;-87
2022/04/01 08:00:12;;;;;;;69.60;5.45;;;;;;;;;;4992959;28;20104;-87
2022/04/01 08:02:40;;;;;;;8.80;2.33;;;;;;;;;;5006757;28;20494;-87
2022/04/01 08:05:08;;;;;;;5.78;2.08;;;;;;;;;;5008076;28;20054;-88
2022/04/01 08:07:35;;;;;;;4.68;1.95;;;;;;;;;;5014973;28;20446;-87
2022/04/01 08:10:04;;;;;;;6.68;1.95;;;;;;;;;;5014912;28;20096;-88
2022/04/01 08:12:39;;;;;;;60.97;3.97;;;;;;;;;;5015509;28;20085;-88
2022/04/01 08:15:07;;;;;;;5.20;2.40;;;;;;;;;;4999903;28;20074;-87
2022/04/01 08:17:34;;;;;;;7.30;2.25;;;;;;;;;;5020398;28;20104;-88
2022/04/01 08:20:01;;;;;;;12.63;2.42;;;;;;;;;;5007037;28;20877;-88
2022/04/01 08:22:29;;;;;;;19.98;2.63;;;;;;;;;;5021084;28;20570;-88
2022/04/01 08:24:56;;;;;;;19.73;2.65;;;;;;;;;;4999102;28;20100;-88
2022/04/01 08:27:23;;;;;;;84.13;5.53;;;;;;;;;;5025889;28;20076;-88
2022/04/01 08:29:55;;;;;;;7.20;1.77;;;;;;;;;;5007671;28;20104;-88
2022/04/01 08:32:22;;;;;;;12.50;2.60;;;;;;;;;;5018353;28;20116;-88
2022/04/01 08:34:50;;;;;;;8.38;1.83;;;;;;;;;;5005383;28;20061;-88
2022/04/01 08:37:17;;;;;;;5.93;1.70;;;;;;;;;;5019715;28;20050;-87
2022/04/01 08:39:53;;;;;;;9.13;2.08;;;;;;;;;;5022575;28;20046;-89
2022/04/01 08:42:21;;;;;;;7.15;1.88;;;;;;;;;;5018085;28;20050;-81
2022/04/01 08:44:51;;;;;;;20.73;2.38;;;;;;;;;;5015955;28;20061;-80
2022/04/01 08:47:18;;;;;;;15.13;2.38;;;;;;;;;;5016434;28;20078;-81
2022/04/01 08:49:45;;;;;;;3.78;1.90;;;;;;;;;;5023809;28;20096;-80
2022/04/01 08:52:12;;;;;;;4.82;1.77;;;;;;;;;;5017556;28;20093;-80
2022/04/01 08:54:40;;;;;;;8.20;2.00;;;;;;;;;;5021491;28;20078;-80
2022/04/01 08:57:08;;;;;;;9.90;2.00;;;;;;;;;;5013290;28;20096;-80
2022/04/01 08:59:37;;;;;;;6.07;1.85;;;;;;;;;;5019908;28;20162;-80
2022/04/01 09:02:09;;;;;;;7.90;1.70;;;;;;;;;;5002238;28;20130;-80
2022/04/01 09:04:37;;;;;;;22.58;3.38;;;;;;;;;;5009516;28;20077;-80
2022/04/01 09:07:15;;;;;;;29.75;4.40;;;;;;;;;;4997498;28;20048;-81
2022/04/01 09:09:42;;;;;;;42.45;3.50;;;;;;;;;;5003624;28;20482;-80
2022/04/01 09:12:14;;;;;;;28.48;3.75;;;;;;;;;;5010935;28;20097;-80
2022/04/01 09:14:49;;;;;;;8.73;2.83;;;;;;;;;;5008958;28;20057;-80
2022/04/01 09:17:16;;;;;;;8.57;2.30;;;;;;;;;;5003253;28;20088;-80
2022/04/01 09:19:48;;;;;;;8.00;1.67;;;;;;;;;;4996522;28;20050;-80
2022/04/01 09:22:23;;;;;;;8.07;1.95;;;;;;;;;;4992932;28;20082;-80
2022/04/01 09:24:53;;;;;;;11.38;2.20;;;;;;;;;;4990129;28;20051;-80
2022/04/01 09:27:35;;;;;;;8.27;2.10;;;;;;;;;;5000761;28;20066;-80
2022/04/01 09:30:03;;;;;;;11.07;2.10;;;;;;;;;;5009623;28;20074;-80
2022/04/01 09:32:38;;;;;;;11.52;1.60;;;;;;;;;;5009657;28;20108;-81
2022/04/01 09:35:06;;;;;;;15.70;1.98;;;;;;;;;;5007838;28;20049;-81
2022/04/01 09:37:41;;;;;;;6.38;1.50;;;;;;;;;;4993782;28;20070;-81
2022/04/01 09:40:08;;;;;;;5.67;2.60;;;;;;;;;;5007706;28;20882;-80
2022/04/01 09:42:36;;;;;;;16.92;1.92;;;;;;;;;;4994828;28;20085;-80
2022/04/01 09:45:03;;;;;;;7.80;1.80;;;;;;;;;;5009643;28;20133;-81
2022/04/01 09:47:37;;;;;;;15.77;2.58;;;;;;;;;;4993765;28;20124;-80
2022/04/01 09:50:15;;;;;;;20.20;2.22;;;;;;;;;;5009386;28;20499;-81
2022/04/01 09:52:43;;;;;;;14.55;2.10;;;;;;;;;;5016655;28;20547;-81
2022/04/01 09:55:10;;;;;;;24.52;2.03;;;;;;;;;;5009850;28;20080;-80
2022/04/01 09:57:37;;;;;;;13.20;1.52;;;;;;;;;;5015585;28;20042;-80
2022/04/01 10:00:06;;;;;;;30.13;2.35;;;;;;;;;;5009113;28;20054;-80
2022/04/01 10:02:33;;;;;;;7.00;1.58;;;;;;;;;;5019696;28;20050;-81
2022/04/01 10:05:00;;;;;;;5.10;1.58;;;;;;;;;;5008922;28;20057;-81
2022/04/01 10:07:30;;;;;;;6.82;2.00;;;;;;;;;;5008775;28;20487;-80
2022/04/01 10:09:57;;;;;;;9.40;2.08;;;;;;;;;;4998783;28;20843;-81
2022/04/01 10:12:29;;;;;;;3.80;2.10;;;;;;;;;;5007916;28;20120;-81
2022/04/01 10:14:58;;;;;;;59.88;5.63;;;;;;;;;;5010286;28;20056;-81
2022/04/01 10:17:40;;;;;;;59.35;4.32;;;;;;;;;;4979003;28;20056;-81
2022/04/01 10:20:08;;;;;;;9.95;2.25;;;;;;;;;;5007204;28;20081;-81
2022/04/01 10:22:36;;;;;;;12.00;2.53;;;;;;;;;;5017776;28;20078;-81
2022/04/01 10:25:25;;;;;;;23.45;2.38;;;;;;;;;;4994595;28;20093;-80
2022/04/01 10:27:53;;;;;;;8.07;1.70;;;;;;;;;;5017285;28;20133;-81
2022/04/01 10:30:24;;;;;;;20.23;2.75;;;;;;;;;;5016724;28;20046;-81
2022/04/01 10:32:51;;;;;;;28.42;2.63;;;;;;;;;;4991218;28;20046;-81
2022/04/01 10:35:22;;;;;;;13.88;1.90;;;;;;;;;;5015774;28;20499;-80
2022/04/01 10:38:05;;;;;;;15.27;1.90;;;;;;;;;;4989904;28;20082;-80
2022/04/01 10:40:37;;;;;;;7.60;1.25;;;;;;;;;;5001368;28;20129;-81
2022/04/01 10:43:10;;;;;;;29.05;3.63;;;;;;;;;;4998032;28;20111;-81
2022/04/01 10:45:38;;;;;;;18.80;2.58;;;;;;;;;;5027930;28;20137;-81
2022/04/01 10:53:58;;;;;;;18.13;1.67;;;;;;;;;;5003405;28;20498;-80
2022/04/01 10:56:30;;;;;;;8.43;1.92;;;;;;;;;;5020819;28;20049;-81
2022/04/01 10:59:06;;;;;;;7.78;1.73;;;;;;;;;;5022055;28;20053;-81
2022/04/01 11:01:35;;;;;;;18.08;1.67;;;;;;;;;;5010338;28;20042;-81
2022/04/01 11:04:03;;;;;;;8.02;1.50;;;;;;;;;;4992209;28;20069;-81
2022/04/01 11:06:30;;;;;;;10.57;1.70;;;;;;;;;;5006932;28;20418;-81
2022/04/01 11:08:57;;;;;;;4.40;1.30;;;;;;;;;;5010905;28;20314;-81
2022/04/01 11:11:31;;;;;;;26.38;1.98;;;;;;;;;;5015156;28;20038;-81
2022/04/01 11:14:03;;;;;;;40.80;3.63;;;;;;;;;;5021691;28;20450;-80
2022/04/01 11:16:45;;;;;;;53.58;3.20;;;;;;;;;;4999626;28;20135;-81
2022/04/01 11:19:20;;;;;;;43.47;3.15;;;;;;;;;;5007515;28;20077;-81
2022/04/01 11:21:48;;;;;;;6.38;1.60;;;;;;;;;;5010202;28;20089;-80
2022/04/01 11:24:23;;;;;;;17.00;2.00;;;;;;;;;;5022602;28;20491;-81
2022/04/01 11:26:50;;;;;;;14.18;2.03;;;;;;;;;;5019771;28;20498;-81
2022/04/01 11:29:23;;;;;;;37.17;3.05;;;;;;;;;;5017341;28;20498;-81
2022/04/01 11:31:50;;;;;;;3.03;1.23;;;;;;;;;;4993458;28;20081;-81
2022/04/01 11:34:18;;;;;;;10.75;1.42;;;;;;;;;;5006942;28;20096;-81
2022/04/01 11:36:46;;;;;;;6.13;1.60;;;;;;;;;;4995330;28;20074;-81
2022/04/01 11:39:17;;;;;;;10.18;2.15;;;;;;;;;;5005484;28;20074;-80
2022/04/01 11:41:48;;;;;;;8.68;1.92;;;;;;;;;;4991234;28;20050;-81
2022/04/01 11:44:16;;;;;;;13.77;1.75;;;;;;;;;;5006190;28;20478;-82
2022/04/01 11:46:49;;;;;;;2.97;1.35;;;;;;;;;;4991804;28;20046;-82
2022/04/01 11:49:17;;;;;;;9.57;1.40;;;;;;;;;;4989295;28;20066;-82
2022/04/01 11:51:44;;;;;;;38.30;3.65;;;;;;;;;;5001373;28;20073;-81
2022/04/01 11:54:11;;;;;;;53.67;5.43;;;;;;;;;;4989397;28;20082;-81
2022/04/01 11:56:38;;;;;;;27.40;2.63;;;;;;;;;;5002001;28;20050;-81
2022/04/01 11:59:07;;;;;;;11.27;1.60;;;;;;;;;;4991171;28;20527;-81
2022/04/01 12:01:54;;;;;;;9.63;2.03;;;;;;;;;;4991741;28;20058;-81
2022/04/01 12:04:29;;;;;;;11.48;2.10;;;;;;;;;;5000372;28;20053;-81
2022/04/01 12:09:47;;;;;;;2.83;1.13;;;;;;;;;;4999246;28;20047;-81
2022/04/01 12:12:21;;;;;;;6.68;1.63;;;;;;;;;;5006107;28;20487;-82
2022/04/01 12:14:49;;;;;;;9.20;1.27;;;;;;;;;;5001820;28;20137;-82
2022/04/01 12:17:16;;;;;;;19.58;1.60;;;;;;;;;;5017408;28;20073;-82
2022/04/01 12:19:43;;;;;;;20.23;2.10;;;;;;;;;;5018515;28;20046;-81
2022/04/01 12:22:11;;;;;;;7.38;1.40;;;;;;;;;;5014521;28;20086;-81
2022/04/01 12:24:38;;;;;;;5.05;1.30;;;;;;;;;;5012413;28;20049;-82
2022/04/01 12:27:06;;;;;;;31.58;2.15;;;;;;;;;;5013269;28;20492;-80
2022/04/01 12:29:34;;;;;;;9.65;1.40;;;;;;;;;;5004323;28;20050;-82
2022/04/01 12:32:03;;;;;;;2.97;1.20;;;;;;;;;;5025722;28;20050;-82
2022/04/01 12:34:31;;;;;;;32.85;4.47;;;;;;;;;;4996857;28;20047;-81
2022/04/01 12:37:00;;;;;;;5.75;1.83;;;;;;;;;;5009627;28;20088;-81
2022/04/01 12:39:31;;;;;;;14.48;1.98;;;;;;;;;;5020657;28;20084;-81
2022/04/01 12:41:59;;;;;;;8.88;1.20;;;;;;;;;;5025769;28;20074;-81
2022/04/01 12:44:31;;;;;;;10.02;1.30;;;;;;;;;;5012122;28;20074;-82
2022/04/01 12:47:00;;;;;;;5.32;1.73;;;;;;;;;;5018625;28;20046;-82
2022/04/01 12:49:30;;;;;;;22.08;1.98;;;;;;;;;;5024936;28;20574;-82
2022/04/01 12:51:59;;;;;;;24.85;1.40;;;;;;;;;;4999373;28;20057;-82
2022/04/01 12:54:37;;;;;;;4.90;1.17;;;;;;;;;;5008087;28;20051;-82
2022/04/01 12:57:05;;;;;;;23.05;1.75;;;;;;;;;;5010372;28;20073;-82
2022/04/01 12:59:34;;;;;;;21.73;2.58;;;;;;;;;;5005072;28;20121;-82
2022/04/01 13:02:03;;;;;;;6.10;1.90;;;;;;;;;;5004946;28;20050;-81
2022/04/01 13:04:38;;;;;;;11.13;1.42;;;;;;;;;;5008903;28;20049;-82
2022/04/01 13:07:08;;;;;;;5.55;1.27;;;;;;;;;;5006142;28;20057;-81
2022/04/01 13:09:46;;;;;;;9.55;1.17;;;;;;;;;;5004392;28;20058;-81
2022/04/01 13:12:13;;;;;;;21.23;2.05;;;;;;;;;;5007246;28;20459;-82
2022/04/01 13:14:40;;;;;;;5.90;1.08;;;;;;;;;;5009101;28;20789;-82
2022/04/01 13:17:15;;;;;;;7.40;1.33;;;;;;;;;;5009397;28;20104;-82
2022/04/01 13:19:43;;;;;;;7.80;1.25;;;;;;;;;;5009991;28;20105;-82
2022/04/01 13:22:11;;;;;;;3.15;1.77;;;;;;;;;;5009929;28;20085;-82
2022/04/01 13:24:46;;;;;;;17.40;2.40;;;;;;;;;;5006806;28;20438;-81
2022/04/01 13:27:21;;;;;;;9.75;1.10;;;;;;;;;;5006131;28;20202;-81
2022/04/01 13:29:49;;;;;;;10.43;2.00;;;;;;;;;;5007262;28;20039;-82
2022/04/01 13:32:16;;;;;;;12.95;1.98;;;;;;;;;;5005186;28;20043;-82
2022/04/01 13:34:47;;;;;;;16.65;2.47;;;;;;;;;;5009232;28;20148;-82
2022/04/01 13:37:15;;;;;;;16.60;4.45;;;;;;;;;;5015563;28;20442;-82
2022/04/01 13:39:42;;;;;;;7.05;1.40;;;;;;;;;;5002586;28;20055;-82
2022/04/01 13:42:10;;;;;;;5.00;1.40;;;;;;;;;;4998212;28;20085;-82
2022/04/01 13:44:37;;;;;;;35.03;2.97;;;;;;;;;;4993999;28;20047;-82
2022/04/01 13:47:04;;;;;;;15.18;1.50;;;;;;;;;;5009376;28;20145;-82
2022/04/01 13:49:32;;;;;;;5.22;1.20;;;;;;;;;;5009432;28;20848;-82
2022/04/01 13:52:00;;;;;;;5.15;1.23;;;;;;;;;;5015097;28;21551;-82
2022/04/01 13:54:28;;;;;;;17.33;2.25;;;;;;;;;;4990752;28;20038;-81
2022/04/01 13:56:55;;;;;;;9.40;1.40;;;;;;;;;;5006171;28;20151;-81
2022/04/01 13:59:24;;;;;;;4.28;1.67;;;;;;;;;;5006520;28;21401;-82
2022/04/01 14:01:51;;;;;;;20.98;2.15;;;;;;;;;;5005106;28;20458;-81
2022/04/01 14:04:24;;;;;;;8.45;1.38;;;;;;;;;;5005261;28;20054;-81
2022/04/01 14:06:51;;;;;;;27.58;2.25;;;;;;;;;;5003979;28;20084;-81
2022/04/01 14:09:22;;;;;;;24.65;2.55;;;;;;;;;;4991517;28;20129;-81
2022/04/01 14:12:09;;;;;;;11.38;1.90;;;;;;;;;;5002619;28;20050;-81
2022/04/01 14:14:36;;;;;;;12.65;1.77;;;;;;;;;;5005988;28;20135;-81
2022/04/01 14:17:04;;;;;;;16.05;1.55;;;;;;;;;;4991158;28;20078;-82
2022/04/01 14:19:32;;;;;;;19.35;2.05;;;;;;;;;;4990109;28;20051;-82
2022/04/01 14:21:59;;;;;;;29.08;1.85;;;;;;;;;;5004793;28;20093;-83
2022/04/01 14:24:26;;;;;;;18.50;2.40;;;;;;;;;;4989345;28;20073;-81
2022/04/01 14:26:53;;;;;;;302.95;40.88;;;;;;;;;;5005092;28;20050;-81
2022/04/01 14:32:07;;;;;;;55.80;5.32;;;;;;;;;;4992682;28;20046;-81
2022/04/01 14:34:36;;;;;;;14.38;3.97;;;;;;;;;;5001040;28;20076;-81
2022/04/01 14:37:05;;;;;;;8.63;1.23;;;;;;;;;;4994271;28;20097;-81
2022/04/01 14:39:33;;;;;;;14.20;2.00;;;;;;;;;;4979942;28;20073;-81
2022/04/01 14:42:00;;;;;;;1.80;1.00;;;;;;;;;;4994647;28;20068;-81
2022/04/01 14:44:29;;;;;;;6.40;1.23;;;;;;;;;;4995779;28;20260;-81
2022/04/01 14:46:57;;;;;;;163.93;19.67;;;;;;;;;;5004526;28;20149;-80
2022/04/01 14:49:24;;;;;;;10.23;1.80;;;;;;;;;;5002623;28;20835;-80
2022/04/01 14:51:51;;;;;;;22.30;2.10;;;;;;;;;;5000721;28;20050;-81
2022/04/01 14:54:18;;;;;;;9.40;1.73;;;;;;;;;;5001897;28;20984;-81
2022/04/01 14:56:47;;;;;;;18.88;2.40;;;;;;;;;;4985384;28;20054;-82
2022/04/01 14:59:15;;;;;;;7.15;1.20;;;;;;;;;;5001305;28;20108;-81
2022/04/01 15:01:42;;;;;;;5.05;1.30;;;;;;;;;;5001331;28;20491;-81
2022/04/01 15:04:14;;;;;;;3.30;1.02;;;;;;;;;;4986095;28;20056;-82
2022/04/01 15:06:41;;;;;;;6.85;1.40;;;;;;;;;;4988102;28;20054;-81
2022/04/01 15:09:08;;;;;;;4.40;1.40;;;;;;;;;;5003630;28;20896;-82